sensor_id;sensor_type;location;lat;lon;timestamp;pressure;altitude;pressure_sealevel;temperature;humidity
80570;BME280;69923;50.828;4.400;2023-05-10T00:01:00;100142.25;;;12.39;88.11
80570;BME280;69923;50.828;4.400;2023-05-10T00:03:27;100144.34;;;12.35;88.50
80570;BME280;69923;50.828;4.400;2023-05-10T00:05:53;100143.97;;;12.40;88.70
80570;BME280;69923;50.828;4.400;2023-05-10T00:08:19;100140.50;;;12.50;88.08
80570;BME280;69923;50.828;4.400;2023-05-10T00:10:45;100142.69;;;12.45;88.07
80570;BME280;69923;50.828;4.400;2023-05-10T00:13:11;100140.09;;;12.44;87.90
80570;BME280;69923;50.828;4.400;2023-05-10T00:15:37;100139.03;;;12.46;88.01
80570;BME280;69923;50.828;4.400;2023-05-10T00:18:04;100137.16;;;12.47;87.86
80570;BME280;69923;50.828;4.400;2023-05-10T00:20:30;100146.81;;;12.49;87.79
80570;BME280;69923;50.828;4.400;2023-05-10T00:22:56;100135.63;;;12.55;87.89
80570;BME280;69923;50.828;4.400;2023-05-10T00:25:22;100140.88;;;12.57;87.65
80570;BME280;69923;50.828;4.400;2023-05-10T00:27:48;100139.78;;;12.60;87.32
80570;BME280;69923;50.828;4.400;2023-05-10T00:30:15;100139.78;;;12.60;87.64
80570;BME280;69923;50.828;4.400;2023-05-10T00:32:41;100137.97;;;12.60;87.38
80570;BME280;69923;50.828;4.400;2023-05-10T00:35:09;100134.31;;;12.61;87.69
80570;BME280;69923;50.828;4.400;2023-05-10T00:37:35;100130.50;;;12.64;87.42
80570;BME280;69923;50.828;4.400;2023-05-10T00:40:01;100123.69;;;12.60;87.56
80570;BME280;69923;50.828;4.400;2023-05-10T00:42:28;100125.47;;;12.48;87.95
80570;BME280;69923;50.828;4.400;2023-05-10T00:44:54;100134.38;;;12.48;88.07
80570;BME280;69923;50.828;4.400;2023-05-10T00:47:20;100129.59;;;12.41;88.33
80570;BME280;69923;50.828;4.400;2023-05-10T00:49:48;100126.34;;;12.48;88.42
80570;BME280;69923;50.828;4.400;2023-05-10T00:52:14;100128.69;;;12.53;87.96
80570;BME280;69923;50.828;4.400;2023-05-10T00:54:40;100126.09;;;12.51;87.89
80570;BME280;69923;50.828;4.400;2023-05-10T00:57:06;100125.72;;;12.45;88.30
80570;BME280;69923;50.828;4.400;2023-05-10T00:59:32;100122.66;;;12.38;88.65
80570;BME280;69923;50.828;4.400;2023-05-10T01:01:59;100126.34;;;12.48;88.41
80570;BME280;69923;50.828;4.400;2023-05-10T01:04:25;100125.72;;;12.45;88.37
80570;BME280;69923;50.828;4.400;2023-05-10T01:06:52;100120.97;;;12.48;88.22
80570;BME280;69923;50.828;4.400;2023-05-10T01:09:21;100129.53;;;12.53;88.15
80570;BME280;69923;50.828;4.400;2023-05-10T01:11:47;100126.59;;;12.57;88.15
80570;BME280;69923;50.828;4.400;2023-05-10T01:14:16;100133.56;;;12.59;87.90
80570;BME280;69923;50.828;4.400;2023-05-10T01:16:45;100131.00;;;12.58;87.86
80570;BME280;69923;50.828;4.400;2023-05-10T01:19:23;100133.34;;;12.62;88.07
80570;BME280;69923;50.828;4.400;2023-05-10T01:22:03;100134.78;;;12.66;87.72
80570;BME280;69923;50.828;4.400;2023-05-10T01:33:30;100131.88;;;12.69;87.87
80570;BME280;69923;50.828;4.400;2023-05-10T01:36:16;100135.31;;;12.71;87.43
80570;BME280;69923;50.828;4.400;2023-05-10T01:39:36;100138.22;;;12.68;87.49
80570;BME280;69923;50.828;4.400;2023-05-10T01:41:47;100130.06;;;12.70;87.39
80570;BME280;69923;50.828;4.400;2023-05-10T01:44:33;100138.84;;;12.72;87.35
80570;BME280;69923;50.828;4.400;2023-05-10T01:47:09;100130.28;;;12.67;87.53
80570;BME280;69923;50.828;4.400;2023-05-10T01:49:44;100133.19;;;12.64;87.74
80570;BME280;69923;50.828;4.400;2023-05-10T01:52:22;100130.50;;;12.64;87.40
80570;BME280;69923;50.828;4.400;2023-05-10T01:55:00;100133.72;;;12.69;87.61
80570;BME280;69923;50.828;4.400;2023-05-10T01:57:32;100132.22;;;12.65;87.48
80570;BME280;69923;50.828;4.400;2023-05-10T02:00:00;100137.09;;;12.60;87.75
80570;BME280;69923;50.828;4.400;2023-05-10T02:02:28;100138.56;;;12.64;87.74
80570;BME280;69923;50.828;4.400;2023-05-10T02:04:56;100140.28;;;12.65;87.59
80570;BME280;69923;50.828;4.400;2023-05-10T02:07:23;100139.31;;;12.66;87.40
80570;BME280;69923;50.828;4.400;2023-05-10T02:09:51;100138.34;;;12.67;87.32
80570;BME280;69923;50.828;4.400;2023-05-10T02:12:17;100142.09;;;12.64;87.10
80570;BME280;69923;50.828;4.400;2023-05-10T02:14:45;100142.47;;;12.60;87.16
80570;BME280;69923;50.828;4.400;2023-05-10T02:17:14;100135.75;;;12.65;87.48
80570;BME280;69923;50.828;4.400;2023-05-10T02:19:42;100146.16;;;12.70;87.17
80570;BME280;69923;50.828;4.400;2023-05-10T02:22:09;100138.84;;;12.72;87.28
80570;BME280;69923;50.828;4.400;2023-05-10T02:24:37;100142.50;;;12.71;87.19
80570;BME280;69923;50.828;4.400;2023-05-10T02:27:05;100154.09;;;12.71;86.95
80570;BME280;69923;50.828;4.400;2023-05-10T02:29:33;100155.66;;;12.74;86.96
80570;BME280;69923;50.828;4.400;2023-05-10T02:32:00;100154.53;;;12.65;86.94
80570;BME280;69923;50.828;4.400;2023-05-10T02:34:28;100153.69;;;12.65;87.09
80570;BME280;69923;50.828;4.400;2023-05-10T02:36:55;100162.69;;;12.64;87.24
80570;BME280;69923;50.828;4.400;2023-05-10T02:39:22;100160.16;;;12.62;87.00
80570;BME280;69923;50.828;4.400;2023-05-10T02:41:50;100160.66;;;12.67;86.89
80570;BME280;69923;50.828;4.400;2023-05-10T02:44:19;100163.69;;;12.63;87.07
80570;BME280;69923;50.828;4.400;2023-05-10T02:46:46;100168.91;;;12.53;86.74
80570;BME280;69923;50.828;4.400;2023-05-10T02:49:12;100157.22;;;12.54;87.02
80570;BME280;69923;50.828;4.400;2023-05-10T02:51:44;100164.56;;;12.63;86.81
80570;BME280;69923;50.828;4.400;2023-05-10T02:54:18;100163.56;;;12.64;86.66
80570;BME280;69923;50.828;4.400;2023-05-10T02:56:50;100162.00;;;12.62;86.66
80570;BME280;69923;50.828;4.400;2023-05-10T02:59:17;100162.09;;;12.60;86.66
80570;BME280;69923;50.828;4.400;2023-05-10T03:01:43;100168.31;;;12.61;86.47
80570;BME280;69923;50.828;4.400;2023-05-10T03:04:09;100169.41;;;12.58;86.75
80570;BME280;69923;50.828;4.400;2023-05-10T03:06:35;100168.38;;;12.48;86.87
80570;BME280;69923;50.828;4.400;2023-05-10T03:09:02;100169.88;;;12.52;86.89
80570;BME280;69923;50.828;4.400;2023-05-10T03:11:38;100171.22;;;12.58;86.68
80570;BME280;69923;50.828;4.400;2023-05-10T03:17:01;100170.47;;;12.55;86.69
80570;BME280;69923;50.828;4.400;2023-05-10T03:22:08;100175.97;;;12.54;87.08
80570;BME280;69923;50.828;4.400;2023-05-10T03:24:35;100178.13;;;12.49;87.19
80570;BME280;69923;50.828;4.400;2023-05-10T03:27:04;100179.97;;;12.48;87.75
80570;BME280;69923;50.828;4.400;2023-05-10T03:29:31;100185.56;;;12.45;87.51
80570;BME280;69923;50.828;4.400;2023-05-10T03:31:58;100190.94;;;12.45;88.03
80570;BME280;69923;50.828;4.400;2023-05-10T03:34:30;100187.91;;;12.50;87.90
80570;BME280;69923;50.828;4.400;2023-05-10T03:36:57;100189.50;;;12.52;87.85
80570;BME280;69923;50.828;4.400;2023-05-10T03:39:23;100193.16;;;12.51;88.01
80570;BME280;69923;50.828;4.400;2023-05-10T03:41:50;100187.44;;;12.56;88.02
80570;BME280;69923;50.828;4.400;2023-05-10T03:44:17;100187.44;;;12.56;87.43
80570;BME280;69923;50.828;4.400;2023-05-10T03:46:43;100196.22;;;12.58;87.34
80570;BME280;69923;50.828;4.400;2023-05-10T03:49:09;100194.63;;;12.55;87.52
80570;BME280;69923;50.828;4.400;2023-05-10T03:51:35;100194.75;;;12.54;87.73
80570;BME280;69923;50.828;4.400;2023-05-10T03:54:01;100205.34;;;12.55;88.03
80570;BME280;69923;50.828;4.400;2023-05-10T03:56:27;100206.84;;;12.60;87.50
80570;BME280;69923;50.828;4.400;2023-05-10T03:58:54;100205.63;;;12.64;87.35
80570;BME280;69923;50.828;4.400;2023-05-10T04:01:20;100210.16;;;12.63;87.52
80570;BME280;69923;50.828;4.400;2023-05-10T04:03:46;100201.97;;;12.65;87.54
80570;BME280;69923;50.828;4.400;2023-05-10T04:06:12;100200.03;;;12.67;87.42
80570;BME280;69923;50.828;4.400;2023-05-10T04:08:38;100207.22;;;12.66;87.41
80570;BME280;69923;50.828;4.400;2023-05-10T04:11:11;100202.81;;;12.65;87.49
80570;BME280;69923;50.828;4.400;2023-05-10T04:13:38;100213.44;;;12.67;87.16
80570;BME280;69923;50.828;4.400;2023-05-10T04:16:05;100202.81;;;12.65;87.59
80570;BME280;69923;50.828;4.400;2023-05-10T04:18:31;100210.16;;;12.63;87.42
80570;BME280;69923;50.828;4.400;2023-05-10T04:20:58;100206.63;;;12.63;87.51
80570;BME280;69923;50.828;4.400;2023-05-10T04:23:24;100212.94;;;12.62;87.75
80570;BME280;69923;50.828;4.400;2023-05-10T04:25:50;100201.00;;;12.66;87.72
80570;BME280;69923;50.828;4.400;2023-05-10T04:28:16;100206.84;;;12.60;87.75
80570;BME280;69923;50.828;4.400;2023-05-10T04:30:42;100208.44;;;12.62;87.77
80570;BME280;69923;50.828;4.400;2023-05-10T04:33:08;100211.63;;;12.67;87.75
80570;BME280;69923;50.828;4.400;2023-05-10T04:35:35;100203.41;;;12.58;87.91
80570;BME280;69923;50.828;4.400;2023-05-10T04:38:01;100206.84;;;12.60;87.85
80570;BME280;69923;50.828;4.400;2023-05-10T04:40:27;100210.25;;;12.62;87.62
80570;BME280;69923;50.828;4.400;2023-05-10T04:42:53;100211.97;;;12.63;87.78
80570;BME280;69923;50.828;4.400;2023-05-10T04:45:20;100210.97;;;12.64;87.75
80570;BME280;69923;50.828;4.400;2023-05-10T04:47:46;100209.91;;;12.66;87.56
80570;BME280;69923;50.828;4.400;2023-05-10T04:50:12;100212.25;;;12.71;87.29
80570;BME280;69923;50.828;4.400;2023-05-10T04:52:38;100209.56;;;12.71;87.75
80570;BME280;69923;50.828;4.400;2023-05-10T04:55:05;100211.41;;;12.70;87.59
80570;BME280;69923;50.828;4.400;2023-05-10T04:57:33;100208.94;;;12.67;87.56
80570;BME280;69923;50.828;4.400;2023-05-10T05:00:00;100212.38;;;12.69;87.71
80570;BME280;69923;50.828;4.400;2023-05-10T05:02:26;100224.28;;;12.65;87.76
80570;BME280;69923;50.828;4.400;2023-05-10T05:04:52;100221.38;;;12.68;87.64
80570;BME280;69923;50.828;4.400;2023-05-10T05:07:18;100222.97;;;12.71;87.58
80570;BME280;69923;50.828;4.400;2023-05-10T05:09:44;100223.31;;;12.66;87.87
80570;BME280;69923;50.828;4.400;2023-05-10T05:12:11;100225.13;;;12.66;87.88
80570;BME280;69923;50.828;4.400;2023-05-10T05:14:40;100232.22;;;12.67;87.69
80570;BME280;69923;50.828;4.400;2023-05-10T05:17:07;100224.53;;;12.62;87.71
80570;BME280;69923;50.828;4.400;2023-05-10T05:19:33;100235.00;;;12.65;87.53
80570;BME280;69923;50.828;4.400;2023-05-10T05:21:59;100237.41;;;12.57;87.88
80570;BME280;69923;50.828;4.400;2023-05-10T05:24:25;100240.72;;;12.61;87.86
80570;BME280;69923;50.828;4.400;2023-05-10T05:26:51;100243.53;;;12.59;87.96
80570;BME280;69923;50.828;4.400;2023-05-10T05:29:18;100248.78;;;12.61;87.82
80570;BME280;69923;50.828;4.400;2023-05-10T05:31:44;100256.94;;;12.59;87.40
80570;BME280;69923;50.828;4.400;2023-05-10T05:34:10;100263.84;;;12.50;87.93
80570;BME280;69923;50.828;4.400;2023-05-10T05:36:37;100261.16;;;12.50;87.82
80570;BME280;69923;50.828;4.400;2023-05-10T05:39:06;100267.19;;;12.41;87.33
80570;BME280;69923;50.828;4.400;2023-05-10T05:41:32;100262.19;;;12.37;87.70
80570;BME280;69923;50.828;4.400;2023-05-10T05:43:58;100273.59;;;12.28;87.83
80570;BME280;69923;50.828;4.400;2023-05-10T05:46:24;100271.97;;;12.25;88.12
80570;BME280;69923;50.828;4.400;2023-05-10T05:48:50;100274.44;;;12.28;87.99
80570;BME280;69923;50.828;4.400;2023-05-10T05:51:16;100278.19;;;12.38;88.05
80570;BME280;69923;50.828;4.400;2023-05-10T05:53:43;100281.56;;;12.40;87.84
80570;BME280;69923;50.828;4.400;2023-05-10T05:56:09;100285.88;;;12.43;87.62
80570;BME280;69923;50.828;4.400;2023-05-10T05:58:35;100283.53;;;12.38;88.18
80570;BME280;69923;50.828;4.400;2023-05-10T06:01:01;100286.22;;;12.38;87.60
80570;BME280;69923;50.828;4.400;2023-05-10T06:03:27;100290.72;;;12.38;87.57
80570;BME280;69923;50.828;4.400;2023-05-10T06:05:54;100287.00;;;12.28;87.89
80570;BME280;69923;50.828;4.400;2023-05-10T06:08:20;100289.56;;;12.29;87.87
80570;BME280;69923;50.828;4.400;2023-05-10T06:10:46;100291.25;;;12.30;87.74
80570;BME280;69923;50.828;4.400;2023-05-10T06:13:12;100294.19;;;12.27;87.43
80570;BME280;69923;50.828;4.400;2023-05-10T06:15:39;100298.50;;;12.17;87.78
80570;BME280;69923;50.828;4.400;2023-05-10T06:18:05;100301.53;;;12.12;87.80
80570;BME280;69923;50.828;4.400;2023-05-10T06:20:32;100300.41;;;12.15;87.70
80570;BME280;69923;50.828;4.400;2023-05-10T06:22:58;100306.88;;;12.12;87.51
80570;BME280;69923;50.828;4.400;2023-05-10T06:25:24;100311.13;;;12.15;87.54
80570;BME280;69923;50.828;4.400;2023-05-10T06:27:51;100312.34;;;12.11;87.31
80570;BME280;69923;50.828;4.400;2023-05-10T06:30:23;100313.72;;;12.16;86.95
80570;BME280;69923;50.828;4.400;2023-05-10T06:32:53;100312.91;;;12.03;86.89
80570;BME280;69923;50.828;4.400;2023-05-10T06:35:19;100314.25;;;12.09;86.92
80570;BME280;69923;50.828;4.400;2023-05-10T06:37:46;100321.91;;;12.02;86.38
80570;BME280;69923;50.828;4.400;2023-05-10T06:40:12;100326.91;;;12.07;87.11
80570;BME280;69923;50.828;4.400;2023-05-10T06:42:38;100314.50;;;11.93;87.04
80570;BME280;69923;50.828;4.400;2023-05-10T06:45:05;100324.06;;;11.85;87.22
80570;BME280;69923;50.828;4.400;2023-05-10T06:47:31;100325.53;;;11.89;87.19
80570;BME280;69923;50.828;4.400;2023-05-10T06:49:58;100320.94;;;11.91;87.14
80570;BME280;69923;50.828;4.400;2023-05-10T06:52:24;100316.03;;;11.85;87.23
80570;BME280;69923;50.828;4.400;2023-05-10T06:54:50;100323.31;;;11.83;87.46
80570;BME280;69923;50.828;4.400;2023-05-10T06:57:16;100323.19;;;11.84;87.45
80570;BME280;69923;50.828;4.400;2023-05-10T06:59:43;100332.31;;;11.82;86.70
80570;BME280;69923;50.828;4.400;2023-05-10T07:02:09;100332.75;;;11.75;87.20
80570;BME280;69923;50.828;4.400;2023-05-10T07:04:36;100336.59;;;11.84;87.83
80570;BME280;69923;50.828;4.400;2023-05-10T07:07:02;100331.13;;;11.86;87.25
80570;BME280;69923;50.828;4.400;2023-05-10T07:09:28;100334.88;;;11.96;87.18
80570;BME280;69923;50.828;4.400;2023-05-10T07:11:54;100339.25;;;11.97;86.77
80570;BME280;69923;50.828;4.400;2023-05-10T07:14:21;100338.09;;;11.75;87.12
80570;BME280;69923;50.828;4.400;2023-05-10T07:16:47;100344.63;;;11.71;86.86
80570;BME280;69923;50.828;4.400;2023-05-10T07:19:13;100349.00;;;11.60;87.36
80570;BME280;69923;50.828;4.400;2023-05-10T07:21:39;100350.16;;;11.68;87.81
80570;BME280;69923;50.828;4.400;2023-05-10T07:24:08;100349.41;;;11.66;87.94
80570;BME280;69923;50.828;4.400;2023-05-10T07:26:34;100348.34;;;11.69;87.48
80570;BME280;69923;50.828;4.400;2023-05-10T07:29:00;100356.63;;;11.78;87.41
80570;BME280;69923;50.828;4.400;2023-05-10T07:31:27;100355.31;;;11.71;86.91
80570;BME280;69923;50.828;4.400;2023-05-10T07:33:53;100362.59;;;11.69;87.00
80570;BME280;69923;50.828;4.400;2023-05-10T07:36:19;100357.44;;;11.66;87.67
80570;BME280;69923;50.828;4.400;2023-05-10T07:38:45;100353.22;;;11.76;86.76
80570;BME280;69923;50.828;4.400;2023-05-10T07:41:12;100364.94;;;11.74;87.43
80570;BME280;69923;50.828;4.400;2023-05-10T07:43:38;100363.22;;;11.73;87.22
80570;BME280;69923;50.828;4.400;2023-05-10T07:46:05;100374.31;;;11.81;87.21
80570;BME280;69923;50.828;4.400;2023-05-10T07:48:32;100371.22;;;11.87;86.29
80570;BME280;69923;50.828;4.400;2023-05-10T07:50:58;100375.72;;;11.87;86.20
80570;BME280;69923;50.828;4.400;2023-05-10T07:53:25;100381.38;;;11.95;86.05
80570;BME280;69923;50.828;4.400;2023-05-10T07:55:53;100379.78;;;12.05;86.29
80570;BME280;69923;50.828;4.400;2023-05-10T07:58:20;100385.88;;;12.07;85.45
80570;BME280;69923;50.828;4.400;2023-05-10T08:00:46;100380.19;;;12.11;85.55
80570;BME280;69923;50.828;4.400;2023-05-10T08:03:12;100378.69;;;12.20;85.03
80570;BME280;69923;50.828;4.400;2023-05-10T08:05:38;100388.44;;;12.21;85.20
80570;BME280;69923;50.828;4.400;2023-05-10T08:08:05;100387.59;;;12.21;85.18
80570;BME280;69923;50.828;4.400;2023-05-10T08:10:31;100386.28;;;12.26;85.44
80570;BME280;69923;50.828;4.400;2023-05-10T08:12:57;100382.19;;;12.33;84.96
80570;BME280;69923;50.828;4.400;2023-05-10T08:15:24;100387.88;;;12.41;84.67
80570;BME280;69923;50.828;4.400;2023-05-10T08:17:52;100387.19;;;12.50;84.79
80570;BME280;69923;50.828;4.400;2023-05-10T08:20:18;100392.13;;;12.57;84.79
80570;BME280;69923;50.828;4.400;2023-05-10T08:22:47;100393.81;;;12.58;83.36
80570;BME280;69923;50.828;4.400;2023-05-10T08:25:14;100399.66;;;12.51;83.71
80570;BME280;69923;50.828;4.400;2023-05-10T08:27:40;100406.94;;;12.49;83.92
80570;BME280;69923;50.828;4.400;2023-05-10T08:30:07;100399.31;;;12.56;83.53
80570;BME280;69923;50.828;4.400;2023-05-10T08:32:33;100403.09;;;12.53;83.46
80570;BME280;69923;50.828;4.400;2023-05-10T08:35:00;100407.03;;;12.48;83.84
80570;BME280;69923;50.828;4.400;2023-05-10T08:37:30;100405.00;;;12.51;84.21
80570;BME280;69923;50.828;4.400;2023-05-10T08:39:56;100403.28;;;12.50;84.36
80570;BME280;69923;50.828;4.400;2023-05-10T08:42:24;100408.00;;;12.47;84.49
80570;BME280;69923;50.828;4.400;2023-05-10T08:44:54;100403.50;;;12.47;84.97
80570;BME280;69923;50.828;4.400;2023-05-10T08:47:20;100409.41;;;12.52;84.83
80570;BME280;69923;50.828;4.400;2023-05-10T08:49:48;100411.84;;;12.55;84.23
80570;BME280;69923;50.828;4.400;2023-05-10T08:52:17;100416.06;;;12.47;84.41
80570;BME280;69923;50.828;4.400;2023-05-10T08:54:44;100423.31;;;12.21;84.97
80570;BME280;69923;50.828;4.400;2023-05-10T08:57:11;100423.81;;;12.26;85.18
80570;BME280;69923;50.828;4.400;2023-05-10T08:59:37;100425.84;;;12.35;84.86
80570;BME280;69923;50.828;4.400;2023-05-10T09:02:05;100427.47;;;12.25;84.76
80570;BME280;69923;50.828;4.400;2023-05-10T09:04:32;100424.97;;;12.22;84.71
80570;BME280;69923;50.828;4.400;2023-05-10T09:06:58;100432.84;;;12.12;84.78
80570;BME280;69923;50.828;4.400;2023-05-10T09:09:25;100432.63;;;12.03;85.25
80570;BME280;69923;50.828;4.400;2023-05-10T09:11:53;100436.59;;;12.10;85.30
80570;BME280;69923;50.828;4.400;2023-05-10T09:14:20;100437.75;;;12.06;85.29
80570;BME280;69923;50.828;4.400;2023-05-10T09:16:47;100439.38;;;12.21;85.77
80570;BME280;69923;50.828;4.400;2023-05-10T09:19:13;100447.50;;;12.32;84.93
80570;BME280;69923;50.828;4.400;2023-05-10T09:21:39;100444.94;;;12.43;84.80
80570;BME280;69923;50.828;4.400;2023-05-10T09:24:07;100454.25;;;12.50;84.40
80570;BME280;69923;50.828;4.400;2023-05-10T09:26:33;100453.06;;;12.54;84.69
80570;BME280;69923;50.828;4.400;2023-05-10T09:29:01;100454.44;;;12.60;84.19
80570;BME280;69923;50.828;4.400;2023-05-10T09:31:49;100464.53;;;12.57;83.94
80570;BME280;69923;50.828;4.400;2023-05-10T09:34:19;100461.63;;;12.60;83.94
80570;BME280;69923;50.828;4.400;2023-05-10T09:37:00;100463.97;;;12.77;84.45
80570;BME280;69923;50.828;4.400;2023-05-10T09:39:31;100460.53;;;12.75;83.23
80570;BME280;69923;50.828;4.400;2023-05-10T09:42:02;100465.59;;;12.67;84.10
80570;BME280;69923;50.828;4.400;2023-05-10T09:44:30;100468.16;;;12.68;83.88
80570;BME280;69923;50.828;4.400;2023-05-10T09:46:56;100474.41;;;12.69;83.65
80570;BME280;69923;50.828;4.400;2023-05-10T09:49:23;100475.34;;;12.68;83.76
80570;BME280;69923;50.828;4.400;2023-05-10T09:52:03;100479.66;;;12.58;84.64
80570;BME280;69923;50.828;4.400;2023-05-10T09:54:30;100478.06;;;12.42;83.89
80570;BME280;69923;50.828;4.400;2023-05-10T09:56:56;100474.09;;;12.35;85.00
80570;BME280;69923;50.828;4.400;2023-05-10T09:59:25;100477.41;;;12.51;84.53
80570;BME280;69923;50.828;4.400;2023-05-10T10:01:57;100477.41;;;12.51;84.71
80570;BME280;69923;50.828;4.400;2023-05-10T10:04:24;100471.31;;;12.49;84.39
80570;BME280;69923;50.828;4.400;2023-05-10T10:07:03;100480.09;;;12.39;85.48
80570;BME280;69923;50.828;4.400;2023-05-10T10:09:30;100475.59;;;12.39;85.27
80570;BME280;69923;50.828;4.400;2023-05-10T10:11:57;100477.31;;;12.40;85.41
80570;BME280;69923;50.828;4.400;2023-05-10T10:14:24;100479.03;;;12.54;84.81
80570;BME280;69923;50.828;4.400;2023-05-10T10:16:51;100482.44;;;12.56;84.87
80570;BME280;69923;50.828;4.400;2023-05-10T10:19:20;100484.63;;;12.38;84.29
80570;BME280;69923;50.828;4.400;2023-05-10T10:21:48;100484.41;;;12.41;85.18
80570;BME280;69923;50.828;4.400;2023-05-10T10:24:14;100488.81;;;12.30;84.36
80570;BME280;69923;50.828;4.400;2023-05-10T10:26:42;100485.03;;;12.32;85.30
80570;BME280;69923;50.828;4.400;2023-05-10T10:29:41;100486.63;;;12.47;85.34
80570;BME280;69923;50.828;4.400;2023-05-10T10:34:55;100481.59;;;12.43;85.02
80570;BME280;69923;50.828;4.400;2023-05-10T10:37:22;100468.72;;;12.48;84.37
80570;BME280;69923;50.828;4.400;2023-05-10T10:39:51;100480.19;;;12.50;85.34
80570;BME280;69923;50.828;4.400;2023-05-10T10:42:44;100473.22;;;12.47;84.98
80570;BME280;69923;50.828;4.400;2023-05-10T10:45:12;100476.72;;;12.73;84.48
80570;BME280;69923;50.828;4.400;2023-05-10T10:47:38;100481.78;;;12.78;84.34
80570;BME280;69923;50.828;4.400;2023-05-10T10:50:06;100472.97;;;12.76;83.45
80570;BME280;69923;50.828;4.400;2023-05-10T10:52:37;100473.38;;;12.82;83.50
80570;BME280;69923;50.828;4.400;2023-05-10T10:55:20;100468.13;;;12.81;83.44
80570;BME280;69923;50.828;4.400;2023-05-10T10:57:53;100468.31;;;12.90;82.99
80570;BME280;69923;50.828;4.400;2023-05-10T11:00:26;100476.84;;;13.08;82.82
80570;BME280;69923;50.828;4.400;2023-05-10T11:03:09;100472.69;;;13.04;82.54
80570;BME280;69923;50.828;4.400;2023-05-10T11:05:42;100465.63;;;13.03;83.09
80570;BME280;69923;50.828;4.400;2023-05-10T11:08:29;100466.28;;;12.94;82.61
80570;BME280;69923;50.828;4.400;2023-05-10T11:13:44;100467.84;;;13.22;82.03
80570;BME280;69923;50.828;4.400;2023-05-10T11:16:28;100464.44;;;13.31;81.65
80570;BME280;69923;50.828;4.400;2023-05-10T11:19:13;100477.03;;;13.31;81.68
80570;BME280;69923;50.828;4.400;2023-05-10T11:22:12;100470.44;;;13.58;81.73
80570;BME280;69923;50.828;4.400;2023-05-10T11:24:39;100474.31;;;13.78;81.39
80570;BME280;69923;50.828;4.400;2023-05-10T11:27:06;100475.53;;;13.85;80.13
80570;BME280;69923;50.828;4.400;2023-05-10T11:29:32;100469.53;;;13.71;80.27
80570;BME280;69923;50.828;4.400;2023-05-10T11:31:59;100470.06;;;13.98;80.18
80570;BME280;69923;50.828;4.400;2023-05-10T11:34:30;100473.44;;;14.13;78.27
80570;BME280;69923;50.828;4.400;2023-05-10T11:36:59;100478.88;;;14.00;77.81
80570;BME280;69923;50.828;4.400;2023-05-10T11:39:30;100469.66;;;14.26;78.06
80570;BME280;69923;50.828;4.400;2023-05-10T11:41:57;100472.72;;;14.33;77.72
80570;BME280;69923;50.828;4.400;2023-05-10T11:44:30;100472.75;;;14.44;78.26
80570;BME280;69923;50.828;4.400;2023-05-10T11:46:59;100472.78;;;14.55;77.10
80570;BME280;69923;50.828;4.400;2023-05-10T11:49:26;100469.56;;;14.50;77.61
80570;BME280;69923;50.828;4.400;2023-05-10T11:51:52;100469.81;;;14.58;77.66
80570;BME280;69923;50.828;4.400;2023-05-10T11:54:19;100464.22;;;14.61;78.04
80570;BME280;69923;50.828;4.400;2023-05-10T11:56:45;100464.44;;;14.58;77.07
80570;BME280;69923;50.828;4.400;2023-05-10T11:59:14;100473.63;;;14.56;76.14
80570;BME280;69923;50.828;4.400;2023-05-10T12:01:41;100470.31;;;14.41;77.03
80570;BME280;69923;50.828;4.400;2023-05-10T12:04:07;100465.59;;;14.32;77.49
80570;BME280;69923;50.828;4.400;2023-05-10T12:06:39;100466.88;;;14.50;77.85
80570;BME280;69923;50.828;4.400;2023-05-10T12:09:06;100464.22;;;14.61;76.86
80570;BME280;69923;50.828;4.400;2023-05-10T12:11:37;100466.03;;;14.72;77.12
80570;BME280;69923;50.828;4.400;2023-05-10T12:14:05;100465.91;;;14.85;75.97
80570;BME280;69923;50.828;4.400;2023-05-10T12:16:32;100470.31;;;14.86;75.97
80570;BME280;69923;50.828;4.400;2023-05-10T12:19:00;100467.22;;;15.01;75.54
80570;BME280;69923;50.828;4.400;2023-05-10T12:21:27;100467.34;;;15.00;75.36
80570;BME280;69923;50.828;4.400;2023-05-10T12:23:58;100466.13;;;14.93;75.52
80570;BME280;69923;50.828;4.400;2023-05-10T12:26:25;100464.41;;;15.14;76.18
80570;BME280;69923;50.828;4.400;2023-05-10T12:29:10;100465.94;;;15.28;74.60
80570;BME280;69923;50.828;4.400;2023-05-10T12:31:52;100453.09;;;15.31;73.90
80570;BME280;69923;50.828;4.400;2023-05-10T12:34:25;100456.75;;;15.30;73.24
80570;BME280;69923;50.828;4.400;2023-05-10T12:36:55;100456.03;;;15.28;73.09
80570;BME280;69923;50.828;4.400;2023-05-10T12:39:21;100455.72;;;15.53;72.82
80570;BME280;69923;50.828;4.400;2023-05-10T12:41:47;100458.38;;;15.65;72.47
80570;BME280;69923;50.828;4.400;2023-05-10T12:44:13;100461.13;;;15.74;73.45
80570;BME280;69923;50.828;4.400;2023-05-10T12:46:39;100468.31;;;15.85;72.77
80570;BME280;69923;50.828;4.400;2023-05-10T12:49:06;100465.59;;;15.53;73.10
80570;BME280;69923;50.828;4.400;2023-05-10T12:51:32;100462.91;;;15.53;72.80
80570;BME280;69923;50.828;4.400;2023-05-10T12:53:58;100459.69;;;15.70;72.88
80570;BME280;69923;50.828;4.400;2023-05-10T12:56:24;100470.56;;;15.80;72.65
80570;BME280;69923;50.828;4.400;2023-05-10T12:58:50;100462.75;;;15.66;72.37
80570;BME280;69923;50.828;4.400;2023-05-10T13:01:17;100468.09;;;15.77;71.72
80570;BME280;69923;50.828;4.400;2023-05-10T13:03:43;100466.19;;;15.68;71.27
80570;BME280;69923;50.828;4.400;2023-05-10T13:06:09;100474.88;;;15.71;71.46
80570;BME280;69923;50.828;4.400;2023-05-10T13:08:36;100474.56;;;15.85;69.97
80570;BME280;69923;50.828;4.400;2023-05-10T13:11:03;100474.56;;;15.85;70.09
80570;BME280;69923;50.828;4.400;2023-05-10T13:13:29;100472.47;;;15.57;71.85
80570;BME280;69923;50.828;4.400;2023-05-10T13:15:55;100476.03;;;15.57;71.78